createdAt,value
2023-09-09T00:00:09.039Z,101122.16
2023-09-09T00:03:00.696Z,101121.19
2023-09-09T00:05:33.214Z,101118.69
2023-09-09T00:08:01.991Z,101124.09
2023-09-09T00:10:31.362Z,101118.91
2023-09-09T00:13:00.147Z,101115.28
2023-09-09T00:15:31.233Z,101117.31
2023-09-09T00:18:00.922Z,101108.63
2023-09-09T00:20:37.674Z,101110.75
2023-09-09T00:23:09.792Z,101110.78
2023-09-09T00:25:39.325Z,101111.63
2023-09-09T00:28:09.217Z,101119.78
2023-09-09T00:30:37.934Z,101124.84
2023-09-09T00:33:09.504Z,101117.03
2023-09-09T00:35:41.339Z,101117.03
2023-09-09T00:38:12.845Z,101120.25
2023-09-09T00:40:44.947Z,101111.16
2023-09-09T00:43:13.709Z,101121.50
2023-09-09T00:45:42.116Z,101115.34
2023-09-09T00:48:11.111Z,101124.28
2023-09-09T00:50:39.639Z,101123.81
2023-09-09T00:53:08.385Z,101121.13
2023-09-09T00:55:40.784Z,101121.47
2023-09-09T00:58:09.708Z,101116.28
2023-09-09T01:00:39.908Z,101119.75
2023-09-09T01:03:10.819Z,101114.97
2023-09-09T01:05:39.866Z,101121.16
2023-09-09T01:08:08.551Z,101111.81
2023-09-09T01:10:36.929Z,101113.84
2023-09-09T01:13:05.722Z,101104.81
2023-09-09T01:15:34.128Z,101108.47
2023-09-09T01:18:03.004Z,101108.66
2023-09-09T01:20:32.988Z,101106.34
2023-09-09T01:23:02.888Z,101105.53
2023-09-09T01:25:31.320Z,101102.75
2023-09-09T01:28:00.835Z,101109.19
2023-09-09T01:30:29.202Z,101108.25
2023-09-09T01:32:59.062Z,101105.31
2023-09-09T01:35:27.434Z,101109.72
2023-09-09T01:37:57.438Z,101112.38
2023-09-09T01:40:25.880Z,101104.22
2023-09-09T01:42:54.635Z,101113.66
2023-09-09T01:45:23.040Z,101112.56
2023-09-09T01:47:52.049Z,101114.31
2023-09-09T01:50:21.981Z,101113.84
2023-09-09T01:52:50.817Z,101111.50
2023-09-09T01:55:19.231Z,101108.34
2023-09-09T01:57:48.402Z,101108.53
2023-09-09T02:00:21.089Z,101107.03
2023-09-09T02:02:50.087Z,101111.91
2023-09-09T02:05:18.437Z,101104.69
2023-09-09T02:07:47.201Z,101101.88
2023-09-09T02:10:16.137Z,101103.81
2023-09-09T02:12:44.838Z,101102.69
2023-09-09T02:15:14.666Z,101108.88
2023-09-09T02:17:43.509Z,101104.56
2023-09-09T02:20:11.914Z,101107.97
2023-09-09T02:22:40.845Z,101104.31
2023-09-09T02:25:09.979Z,101106.19
2023-09-09T02:27:38.715Z,101108.97
2023-09-09T02:30:08.767Z,101104.38
2023-09-09T02:32:37.598Z,101102.41
2023-09-09T02:35:08.836Z,101102.09
2023-09-09T02:37:38.139Z,101099.34
2023-09-09T02:40:07.025Z,101091.53
2023-09-09T02:42:35.756Z,101099.44
2023-09-09T02:45:04.506Z,101098.16
2023-09-09T02:47:33.235Z,101095.38
2023-09-09T02:50:01.621Z,101098.50
2023-09-09T02:52:31.012Z,101100.41
2023-09-09T02:54:59.391Z,101097.09
2023-09-09T02:57:27.999Z,101099.63
2023-09-09T02:59:57.155Z,101096.00
2023-09-09T03:02:26.484Z,101085.44
2023-09-09T03:04:55.078Z,101093.31
2023-09-09T03:07:23.805Z,101090.81
2023-09-09T03:09:52.316Z,101079.88
2023-09-09T03:12:22.671Z,101082.25
2023-09-09T03:14:51.512Z,101075.41
2023-09-09T03:17:19.994Z,101076.38
2023-09-09T03:19:49.885Z,101081.47
2023-09-09T03:22:18.476Z,101086.34
2023-09-09T03:24:47.212Z,101088.06
2023-09-09T03:27:15.644Z,101090.19
2023-09-09T03:29:44.388Z,101086.03
2023-09-09T03:32:14.119Z,101086.41
2023-09-09T03:34:42.866Z,101092.34
2023-09-09T03:37:11.224Z,101097.16
2023-09-09T03:39:40.051Z,101092.81
2023-09-09T03:42:08.560Z,101089.38
2023-09-09T03:44:37.322Z,101100.22
2023-09-09T03:47:05.823Z,101095.03
2023-09-09T03:49:34.727Z,101095.06
2023-09-09T03:52:04.345Z,101104.03
2023-09-09T03:54:33.079Z,101098.59
2023-09-09T03:57:01.334Z,101092.91
2023-09-09T03:59:32.990Z,101103.03
2023-09-09T04:02:03.623Z,101095.59
2023-09-09T04:04:32.390Z,101098.91
2023-09-09T04:07:00.873Z,101095.16
2023-09-09T04:09:29.730Z,101098.31
2023-09-09T04:11:59.177Z,101096.75
2023-09-09T04:14:27.826Z,101087.25
2023-09-09T04:16:56.217Z,101087.16
2023-09-09T04:19:25.275Z,101101.38
2023-09-09T04:21:54.167Z,101096.47
2023-09-09T04:24:22.820Z,101101.16
2023-09-09T04:26:51.118Z,101089.66
2023-09-09T04:29:19.844Z,101092.34
2023-09-09T04:31:48.923Z,101087.28
2023-09-09T04:34:17.779Z,101087.75
2023-09-09T04:36:46.910Z,101098.66
2023-09-09T04:39:18.472Z,101087.94
2023-09-09T04:41:48.575Z,101099.47
2023-09-09T04:44:17.237Z,101093.41
2023-09-09T04:46:45.714Z,101096.78
2023-09-09T04:49:14.625Z,101089.28
2023-09-09T04:51:43.076Z,101090.53
2023-09-09T04:54:11.789Z,101088.41
2023-09-09T04:56:40.739Z,101096.28
2023-09-09T04:59:09.652Z,101099.63
2023-09-09T05:01:38.119Z,101105.78
2023-09-09T05:04:07.492Z,101101.97
2023-09-09T05:06:36.574Z,101102.34
2023-09-09T05:09:05.292Z,101100.81
2023-09-09T05:11:33.650Z,101097.44
2023-09-09T05:14:02.544Z,101098.91
2023-09-09T05:16:31.117Z,101100.03
2023-09-09T05:19:00.031Z,101098.13
2023-09-09T05:21:28.505Z,101099.25
2023-09-09T05:23:57.265Z,101110.56
2023-09-09T05:26:25.656Z,101098.47
2023-09-09T05:28:54.306Z,101108.91
2023-09-09T05:31:22.642Z,101113.84
2023-09-09T05:33:51.341Z,101109.31
2023-09-09T05:36:19.815Z,101116.03
2023-09-09T05:38:48.500Z,101115.75
2023-09-09T05:41:17.796Z,101116.69
2023-09-09T05:43:46.375Z,101116.63
2023-09-09T05:46:15.984Z,101115.56
2023-09-09T05:48:44.966Z,101118.94
2023-09-09T05:51:13.312Z,101117.38
2023-09-09T05:53:43.063Z,101119.78
2023-09-09T05:56:12.033Z,101125.53
2023-09-09T05:58:42.451Z,101124.00
2023-09-09T06:01:11.020Z,101121.72
2023-09-09T06:03:40.918Z,101121.03
2023-09-09T06:06:10.087Z,101116.00
2023-09-09T06:08:39.239Z,101115.00
2023-09-09T06:11:08.081Z,101120.66
2023-09-09T06:13:37.438Z,101116.81
2023-09-09T06:16:06.055Z,101117.34
2023-09-09T06:18:34.846Z,101115.09
2023-09-09T06:21:04.169Z,101118.09
2023-09-09T06:23:32.965Z,101123.84
2023-09-09T06:26:01.668Z,101123.06
2023-09-09T06:28:30.550Z,101122.47
2023-09-09T06:30:58.937Z,101122.47
2023-09-09T06:33:28.221Z,101122.16
2023-09-09T06:35:56.977Z,101123.91
2023-09-09T06:38:27.339Z,101125.53
2023-09-09T06:40:55.635Z,101133.19
2023-09-09T06:43:24.818Z,101128.97
2023-09-09T06:45:53.119Z,101129.53
2023-09-09T06:48:22.866Z,101131.38
2023-09-09T06:50:51.184Z,101132.44
2023-09-09T06:53:19.831Z,101139.09
2023-09-09T06:55:49.966Z,101143.50
2023-09-09T06:58:18.795Z,101138.88
2023-09-09T07:00:53.599Z,101146.63
2023-09-09T07:03:22.608Z,101145.78
2023-09-09T07:05:51.331Z,101143.72
2023-09-09T07:08:20.038Z,101141.47
2023-09-09T07:10:52.396Z,101150.41
2023-09-09T07:13:25.126Z,101141.88
2023-09-09T07:15:54.855Z,101140.63
2023-09-09T07:18:23.914Z,101144.94
2023-09-09T07:20:52.269Z,101144.06
2023-09-09T07:23:20.844Z,101146.34
2023-09-09T07:25:49.362Z,101137.75
2023-09-09T07:28:18.374Z,101138.19
2023-09-09T07:30:47.048Z,101141.84
2023-09-09T07:33:16.444Z,101146.28
2023-09-09T07:35:45.169Z,101146.06
2023-09-09T07:38:14.071Z,101146.47
2023-09-09T07:40:42.680Z,101150.53
2023-09-09T07:43:11.471Z,101148.00
2023-09-09T07:45:39.830Z,101150.13
2023-09-09T07:48:08.920Z,101145.50
2023-09-09T07:50:37.441Z,101149.63
2023-09-09T07:53:06.139Z,101143.06
2023-09-09T07:55:34.450Z,101143.63
2023-09-09T07:58:03.170Z,101149.53
2023-09-09T08:00:31.654Z,101152.97
2023-09-09T08:03:00.892Z,101156.63
2023-09-09T08:05:29.409Z,101147.81
2023-09-09T08:07:58.027Z,101153.00
2023-09-09T08:10:26.455Z,101149.34
2023-09-09T08:12:55.228Z,101153.84
2023-09-09T08:15:34.685Z,101148.16
2023-09-09T08:18:09.547Z,101144.16
2023-09-09T08:20:37.958Z,101149.75
2023-09-09T08:23:06.990Z,101145.84
2023-09-09T08:25:35.464Z,101149.31
2023-09-09T08:28:05.344Z,101148.13
2023-09-09T08:30:33.750Z,101151.56
2023-09-09T08:33:03.093Z,101156.22
2023-09-09T08:35:32.568Z,101150.59
2023-09-09T08:38:01.755Z,101150.19
2023-09-09T08:40:30.897Z,101156.81
2023-09-09T08:43:00.534Z,101159.41
2023-09-09T08:45:49.894Z,101153.06
2023-09-09T08:48:20.483Z,101155.63
2023-09-09T08:50:51.918Z,101151.00
2023-09-09T08:53:21.650Z,101154.66
2023-09-09T08:55:50.624Z,101136.88
2023-09-09T08:58:21.447Z,101145.63
2023-09-09T09:00:50.459Z,101146.91
2023-09-09T09:03:19.916Z,101140.44
2023-09-09T09:05:48.575Z,101144.63
2023-09-09T09:08:17.292Z,101147.22
2023-09-09T09:10:48.717Z,101136.31
2023-09-09T09:13:17.888Z,101146.53
2023-09-09T09:15:46.323Z,101140.16
2023-09-09T09:18:15.101Z,101146.66
2023-09-09T09:20:44.127Z,101141.88
2023-09-09T09:23:14.478Z,101142.63
2023-09-09T09:25:45.791Z,101141.66
2023-09-09T09:28:18.892Z,101139.94
2023-09-09T09:30:47.849Z,101131.53
2023-09-09T09:33:16.824Z,101133.78
2023-09-09T09:35:45.176Z,101136.09
2023-09-09T09:38:16.355Z,101135.03
2023-09-09T09:40:45.414Z,101139.34
2023-09-09T09:43:21.087Z,101137.06
2023-09-09T09:45:49.462Z,101133.38
2023-09-09T09:48:28.173Z,101127.13
2023-09-09T09:50:56.594Z,101133.38
2023-09-09T09:53:26.508Z,101128.38
2023-09-09T09:55:55.178Z,101123.53
2023-09-09T09:58:25.376Z,101121.75
2023-09-09T10:00:54.848Z,101126.22
2023-09-09T10:03:24.976Z,101121.84
2023-09-09T10:05:55.123Z,101128.81
2023-09-09T10:08:36.699Z,101127.16
2023-09-09T10:11:07.464Z,101116.91
2023-09-09T10:13:46.588Z,101119.06
2023-09-09T10:16:16.846Z,101114.97
2023-09-09T10:18:46.505Z,101110.56
2023-09-09T10:21:20.305Z,101109.19
2023-09-09T10:23:57.504Z,101103.47
2023-09-09T10:26:26.996Z,101101.28
2023-09-09T10:28:56.098Z,101105.44
2023-09-09T10:31:25.655Z,101102.28
2023-09-09T10:33:56.692Z,101102.50
2023-09-09T10:36:28.503Z,101096.09
2023-09-09T10:38:57.793Z,101086.31
2023-09-09T10:41:26.206Z,101092.44
2023-09-09T10:43:55.327Z,101092.97
2023-09-09T10:46:35.379Z,101094.59
2023-09-09T10:49:07.735Z,101082.22
2023-09-09T10:51:52.074Z,101079.53
2023-09-09T10:54:24.761Z,101077.78
2023-09-09T10:56:55.594Z,101078.03
2023-09-09T10:59:31.195Z,101077.28
2023-09-09T11:02:12.835Z,101084.19
2023-09-09T11:04:42.728Z,101082.38
2023-09-09T11:07:14.983Z,101080.16
2023-09-09T11:09:54.939Z,101076.50
2023-09-09T11:12:29.400Z,101073.16
2023-09-09T11:15:00.439Z,101074.88
2023-09-09T11:17:30.212Z,101072.19
2023-09-09T11:20:00.194Z,101069.72
2023-09-09T11:22:30.365Z,101063.94
2023-09-09T11:25:02.436Z,101069.97
2023-09-09T11:27:31.041Z,101068.84
2023-09-09T11:29:59.805Z,101069.84
2023-09-09T11:32:31.622Z,101066.78
2023-09-09T11:35:00.573Z,101069.00
2023-09-09T11:37:30.296Z,101061.63
2023-09-09T11:39:59.181Z,101068.50
2023-09-09T11:42:27.563Z,101061.63
2023-09-09T11:44:56.364Z,101061.25
2023-09-09T11:47:24.845Z,101057.81
2023-09-09T11:49:53.508Z,101069.47
2023-09-09T11:52:22.906Z,101061.00
2023-09-09T11:54:51.741Z,101054.84
2023-09-09T11:57:20.071Z,101057.44
2023-09-09T11:59:50.655Z,101051.06
2023-09-09T12:02:26.058Z,101050.19
2023-09-09T12:04:56.551Z,101046.84
2023-09-09T12:07:28.472Z,101042.66
2023-09-09T12:09:59.545Z,101043.53
2023-09-09T12:12:28.384Z,101046.19
2023-09-09T12:14:58.295Z,101042.28
2023-09-09T12:17:27.024Z,101040.69
2023-09-09T12:19:59.730Z,101033.81
2023-09-09T12:22:35.663Z,101037.78
2023-09-09T12:25:07.357Z,101027.19
2023-09-09T12:27:43.273Z,101025.22
2023-09-09T12:30:31.094Z,101030.50
2023-09-09T12:33:16.118Z,101032.09
2023-09-09T12:35:46.154Z,101027.97
2023-09-09T12:38:16.145Z,101017.56
2023-09-09T12:41:08.243Z,101026.56
2023-09-09T12:43:36.891Z,101022.13
2023-09-09T12:46:16.201Z,101019.84
2023-09-09T12:48:53.465Z,101023.41
2023-09-09T12:51:23.156Z,101016.97
2023-09-09T12:53:52.906Z,101015.97
2023-09-09T12:56:21.730Z,101016.69
2023-09-09T12:58:50.493Z,101018.00
2023-09-09T13:01:19.220Z,101010.34
2023-09-09T13:03:47.753Z,101008.13
2023-09-09T13:06:16.826Z,101007.63
2023-09-09T13:08:45.377Z,101000.66
2023-09-09T13:11:14.069Z,101011.94
2023-09-09T13:13:42.609Z,101011.03
2023-09-09T13:16:13.756Z,101012.06
2023-09-09T13:18:42.267Z,101001.16
2023-09-09T13:21:10.975Z,101006.75
2023-09-09T13:23:39.515Z,101004.72
2023-09-09T13:26:08.239Z,101004.13
2023-09-09T13:28:36.602Z,101007.19
2023-09-09T13:31:05.431Z,101003.38
2023-09-09T13:33:33.949Z,101000.44
2023-09-09T13:36:02.895Z,100996.97
2023-09-09T13:38:31.277Z,101001.81
2023-09-09T13:41:00.211Z,100991.00
2023-09-09T13:43:28.685Z,100983.59
2023-09-09T13:45:58.243Z,100990.81
2023-09-09T13:48:27.984Z,100987.91
2023-09-09T13:50:56.706Z,100985.91
2023-09-09T13:53:25.285Z,100987.25
2023-09-09T13:55:54.020Z,100993.41
2023-09-09T13:58:23.343Z,100987.13
2023-09-09T14:00:52.678Z,100986.91
2023-09-09T14:03:21.245Z,100982.69
2023-09-09T14:05:50.017Z,100986.66
2023-09-09T14:08:18.343Z,100987.13
2023-09-09T14:10:46.976Z,100979.44
2023-09-09T14:13:15.836Z,100979.56
2023-09-09T14:15:44.742Z,100973.84
2023-09-09T14:18:15.300Z,100974.47
2023-09-09T14:20:45.486Z,100972.63
2023-09-09T14:23:13.928Z,100981.50
2023-09-09T14:25:42.677Z,100980.84
2023-09-09T14:28:10.937Z,100970.47
2023-09-09T14:30:46.482Z,100968.59
2023-09-09T14:33:16.465Z,100967.91
2023-09-09T14:35:45.414Z,100968.91
2023-09-09T14:38:13.733Z,100968.91
2023-09-09T14:40:42.436Z,100961.31
2023-09-09T14:43:10.687Z,100955.16
2023-09-09T14:45:39.408Z,100961.31
2023-09-09T14:48:13.759Z,100950.22
2023-09-09T14:50:43.112Z,100959.94
2023-09-09T14:53:12.207Z,100960.03
2023-09-09T14:55:42.127Z,100965.50
2023-09-09T14:58:10.460Z,100958.91
2023-09-09T15:00:41.862Z,100953.78
2023-09-09T15:03:10.280Z,100959.97
2023-09-09T15:05:39.154Z,100947.50
2023-09-09T15:08:07.840Z,100952.75
2023-09-09T15:10:36.740Z,100954.81
2023-09-09T15:13:05.219Z,100952.91
2023-09-09T15:15:38.872Z,100951.13
2023-09-09T15:18:08.769Z,100959.94
2023-09-09T15:20:37.617Z,100960.91
2023-09-09T15:23:05.849Z,100958.53
2023-09-09T15:25:34.420Z,100960.03
2023-09-09T15:28:03.534Z,100964.13
2023-09-09T15:30:32.089Z,100960.03
2023-09-09T15:33:00.516Z,100964.31
2023-09-09T15:35:29.954Z,100964.63
2023-09-09T15:37:58.152Z,100966.97
2023-09-09T15:40:26.840Z,100960.50
2023-09-09T15:42:55.130Z,100962.22
2023-09-09T15:45:23.866Z,100961.44
2023-09-09T15:47:52.135Z,100968.47
2023-09-09T15:50:20.908Z,100960.44
2023-09-09T15:52:49.228Z,100972.00
2023-09-09T15:55:18.050Z,100957.19
2023-09-09T15:57:46.360Z,100955.03
2023-09-09T16:00:15.117Z,100954.63
2023-09-09T16:02:43.541Z,100960.59
2023-09-09T16:05:12.351Z,100958.31
2023-09-09T16:07:44.863Z,100956.59
2023-09-09T16:10:13.559Z,100962.03
2023-09-09T16:12:41.849Z,100956.00
2023-09-09T16:15:10.827Z,100960.69
2023-09-09T16:17:39.234Z,100958.72
2023-09-09T16:20:09.265Z,100957.13
2023-09-09T16:22:40.548Z,100967.09
2023-09-09T16:25:09.886Z,100962.41
2023-09-09T16:27:38.530Z,100961.44
2023-09-09T16:30:07.850Z,100964.25
2023-09-09T16:32:36.387Z,100958.25
2023-09-09T16:35:05.502Z,100962.22
2023-09-09T16:37:35.563Z,100967.63
2023-09-09T16:40:05.133Z,100955.63
2023-09-09T16:42:33.390Z,100956.50
2023-09-09T16:45:02.113Z,100968.19
2023-09-09T16:47:30.439Z,100965.13
2023-09-09T16:49:59.203Z,100968.19
2023-09-09T16:52:27.713Z,100968.63
2023-09-09T16:54:56.471Z,100967.22
2023-09-09T16:57:24.747Z,100976.59
2023-09-09T16:59:53.532Z,100974.59
2023-09-09T17:02:21.891Z,100974.59
2023-09-09T17:04:50.824Z,100972.56
2023-09-09T17:07:19.190Z,100973.69
2023-09-09T17:09:47.890Z,100977.75
2023-09-09T17:12:16.200Z,100976.91
2023-09-09T17:14:45.127Z,100979.72
2023-09-09T17:17:13.497Z,100977.03
2023-09-09T17:19:42.225Z,100977.44
2023-09-09T17:22:10.583Z,100984.81
2023-09-09T17:24:39.304Z,100985.81
2023-09-09T17:27:07.747Z,100983.34
2023-09-09T17:29:36.357Z,100987.03
2023-09-09T17:32:05.508Z,100987.28
2023-09-09T17:34:41.981Z,100995.41
2023-09-09T17:37:10.610Z,100991.13
2023-09-09T17:39:39.867Z,100995.41
2023-09-09T17:42:08.349Z,100993.97
2023-09-09T17:44:38.431Z,100997.66
2023-09-09T17:47:07.257Z,100999.63
2023-09-09T17:49:37.332Z,101008.72
2023-09-09T17:52:06.242Z,101009.72
2023-09-09T17:54:36.165Z,101011.44
2023-09-09T17:57:04.710Z,101016.09
2023-09-09T17:59:33.925Z,101024.34
2023-09-09T18:02:02.442Z,101019.78
2023-09-09T18:04:31.339Z,101024.34
2023-09-09T18:07:00.059Z,101022.75
2023-09-09T18:09:28.877Z,101033.56
2023-09-09T18:11:57.268Z,101028.41
2023-09-09T18:14:25.947Z,101030.00
2023-09-09T18:16:54.412Z,101031.09
2023-09-09T18:19:24.402Z,101043.66
2023-09-09T18:21:53.377Z,101045.34
2023-09-09T18:24:23.889Z,101054.47
2023-09-09T18:26:52.829Z,101053.47
2023-09-09T18:29:25.608Z,101057.16
2023-09-09T18:31:54.498Z,101066.38
2023-09-09T18:34:26.030Z,101065.53
2023-09-09T18:36:54.591Z,101063.69
2023-09-09T18:39:23.182Z,101065.53
2023-09-09T18:41:51.519Z,101074.59
2023-09-09T18:44:20.409Z,101065.06
2023-09-09T18:46:48.850Z,101081.28
2023-09-09T18:49:18.118Z,101082.88
2023-09-09T18:51:46.615Z,101081.75
2023-09-09T18:54:15.338Z,101087.41
2023-09-09T18:56:43.819Z,101076.59
2023-09-09T18:59:12.529Z,101090.84
2023-09-09T19:01:41.043Z,101089.97
2023-09-09T19:04:09.971Z,101083.75
2023-09-09T19:06:38.456Z,101093.81
2023-09-09T19:09:07.177Z,101101.16
2023-09-09T19:11:35.628Z,101104.50
2023-09-09T19:14:04.454Z,101099.22
2023-09-09T19:16:32.818Z,101092.19
2023-09-09T19:19:01.510Z,101104.09
2023-09-09T19:21:31.948Z,101099.56
2023-09-09T19:24:00.697Z,101102.38
2023-09-09T19:26:29.064Z,101109.75
2023-09-09T19:28:57.755Z,101109.88
2023-09-09T19:31:26.226Z,101114.66
2023-09-09T19:33:54.897Z,101110.84
2023-09-09T19:36:23.338Z,101124.25
2023-09-09T19:38:51.994Z,101127.06
2023-09-09T19:41:20.291Z,101124.47
2023-09-09T19:43:49.101Z,101123.13
2023-09-09T19:46:17.580Z,101121.06
2023-09-09T19:48:47.150Z,101122.91
2023-09-09T19:51:15.479Z,101133.09
2023-09-09T19:53:44.238Z,101132.72
2023-09-09T19:56:12.549Z,101131.13
2023-09-09T19:58:41.623Z,101128.19
2023-09-09T20:01:10.399Z,101130.63
2023-09-09T20:03:39.267Z,101131.88
2023-09-09T20:06:08.201Z,101135.31
2023-09-09T20:08:37.511Z,101136.75
2023-09-09T20:11:06.211Z,101132.22
2023-09-09T20:13:35.293Z,101128.66
2023-09-09T20:16:04.640Z,101141.94
2023-09-09T20:18:33.307Z,101137.25
2023-09-09T20:21:02.867Z,101131.59
2023-09-09T20:23:31.549Z,101132.34
2023-09-09T20:26:00.001Z,101136.03
2023-09-09T20:28:30.209Z,101137.75
2023-09-09T20:30:58.724Z,101136.03
2023-09-09T20:33:27.474Z,101136.16
2023-09-09T20:35:55.808Z,101144.38
2023-09-09T20:38:24.536Z,101143.91
2023-09-09T20:40:56.270Z,101141.19
2023-09-09T20:43:27.862Z,101137.94
2023-09-09T20:45:56.557Z,101138.97
2023-09-09T20:48:25.351Z,101137.16
2023-09-09T20:50:53.665Z,101145.53
2023-09-09T20:53:22.317Z,101139.41
2023-09-09T20:55:52.491Z,101141.63
2023-09-09T20:58:22.648Z,101141.63
2023-09-09T21:00:57.889Z,101155.25
2023-09-09T21:03:26.711Z,101156.78
2023-09-09T21:05:55.199Z,101153.84
2023-09-09T21:08:23.902Z,101154.53
2023-09-09T21:10:53.371Z,101156.97
2023-09-09T21:13:22.945Z,101147.19
2023-09-09T21:15:51.290Z,101153.22
2023-09-09T21:18:20.053Z,101151.31
2023-09-09T21:20:48.639Z,101160.31
2023-09-09T21:23:17.346Z,101158.38
2023-09-09T21:25:45.749Z,101153.13
2023-09-09T21:28:14.418Z,101148.50
2023-09-09T21:30:42.943Z,101151.31
2023-09-09T21:33:11.852Z,101153.25
2023-09-09T21:35:40.141Z,101152.66
2023-09-09T21:38:08.943Z,101146.44
2023-09-09T21:40:37.266Z,101149.38
2023-09-09T21:43:05.946Z,101146.63
2023-09-09T21:45:34.400Z,101145.91
2023-09-09T21:48:03.855Z,101145.97
2023-09-09T21:50:32.214Z,101140.38
2023-09-09T21:53:00.815Z,101143.44
2023-09-09T21:55:29.979Z,101149.38
2023-09-09T21:57:58.717Z,101144.56
2023-09-09T22:00:27.615Z,101139.22
2023-09-09T22:02:56.800Z,101127.13
2023-09-09T22:05:25.146Z,101136.69
2023-09-09T22:07:53.906Z,101140.75
2023-09-09T22:10:22.201Z,101131.94
2023-09-09T22:12:50.831Z,101133.63
2023-09-09T22:15:19.243Z,101136.16
2023-09-09T22:17:47.932Z,101140.69
2023-09-09T23:14:12.557Z,101134.06
2023-09-09T23:16:41.506Z,101136.16
2023-09-09T23:19:09.767Z,101135.94
2023-09-09T23:21:38.406Z,101137.47
2023-09-09T23:24:06.902Z,101130.78
2023-09-09T23:26:35.811Z,101144.13
2023-09-09T23:29:05.712Z,101134.66
2023-09-09T23:31:35.097Z,101136.56
2023-09-09T23:34:04.338Z,101131.09
2023-09-09T23:36:33.009Z,101137.22
2023-09-09T23:39:10.458Z,101138.19
2023-09-09T23:41:39.543Z,101133.13
2023-09-09T23:44:08.074Z,101134.84
2023-09-09T23:46:36.616Z,101129.88
2023-09-09T23:49:06.690Z,101133.22
2023-09-09T23:51:35.305Z,101127.28
2023-09-09T23:54:04.218Z,101125.78
2023-09-09T23:56:32.719Z,101126.75
2023-09-09T23:59:01.045Z,101120.84
